sensor_id;sensor_type;location;lat;lon;timestamp;temperature;humidity
45343;DHT22;31077;50.872;4.352;2023-02-28T00:01:20;23.90;26.80
45343;DHT22;31077;50.872;4.352;2023-02-28T00:03:46;24.00;27.00
45343;DHT22;31077;50.872;4.352;2023-02-28T00:06:12;23.30;26.70
45343;DHT22;31077;50.872;4.352;2023-02-28T00:08:38;24.80;27.40
45343;DHT22;31077;50.872;4.352;2023-02-28T00:11:07;24.10;27.10
45343;DHT22;31077;50.872;4.352;2023-02-28T00:13:35;23.90;27.00
45343;DHT22;31077;50.872;4.352;2023-02-28T00:16:04;24.10;27.10
45343;DHT22;31077;50.872;4.352;2023-02-28T00:18:30;24.00;26.90
45343;DHT22;31077;50.872;4.352;2023-02-28T00:20:57;24.00;26.90
45343;DHT22;31077;50.872;4.352;2023-02-28T00:23:23;24.00;27.00
45343;DHT22;31077;50.872;4.352;2023-02-28T00:25:50;24.00;27.00
45343;DHT22;31077;50.872;4.352;2023-02-28T00:28:16;24.00;27.10
45343;DHT22;31077;50.872;4.352;2023-02-28T00:30:42;24.10;27.00
45343;DHT22;31077;50.872;4.352;2023-02-28T00:33:08;24.10;27.10
45343;DHT22;31077;50.872;4.352;2023-02-28T00:35:34;23.70;26.90
45343;DHT22;31077;50.872;4.352;2023-02-28T00:37:59;24.20;27.10
45343;DHT22;31077;50.872;4.352;2023-02-28T00:40:25;24.10;27.10
45343;DHT22;31077;50.872;4.352;2023-02-28T00:42:52;24.20;27.20
45343;DHT22;31077;50.872;4.352;2023-02-28T00:45:17;23.30;26.80
45343;DHT22;31077;50.872;4.352;2023-02-28T00:47:44;24.10;27.10
45343;DHT22;31077;50.872;4.352;2023-02-28T00:50:12;24.10;27.10
45343;DHT22;31077;50.872;4.352;2023-02-28T00:52:38;24.20;27.10
45343;DHT22;31077;50.872;4.352;2023-02-28T00:55:04;24.10;27.00
45343;DHT22;31077;50.872;4.352;2023-02-28T00:57:30;24.10;27.10
45343;DHT22;31077;50.872;4.352;2023-02-28T00:59:56;24.10;27.20
45343;DHT22;31077;50.872;4.352;2023-02-28T01:02:22;24.10;27.10
45343;DHT22;31077;50.872;4.352;2023-02-28T01:04:48;24.10;27.20
45343;DHT22;31077;50.872;4.352;2023-02-28T01:07:14;24.30;27.30
45343;DHT22;31077;50.872;4.352;2023-02-28T01:09:40;24.10;27.20
45343;DHT22;31077;50.872;4.352;2023-02-28T01:12:07;24.20;27.30
45343;DHT22;31077;50.872;4.352;2023-02-28T01:14:34;24.10;27.20
45343;DHT22;31077;50.872;4.352;2023-02-28T01:17:00;24.10;27.10
45343;DHT22;31077;50.872;4.352;2023-02-28T01:19:26;23.60;26.90
45343;DHT22;31077;50.872;4.352;2023-02-28T01:21:52;24.10;27.10
45343;DHT22;31077;50.872;4.352;2023-02-28T01:24:18;24.30;27.20
45343;DHT22;31077;50.872;4.352;2023-02-28T01:26:44;24.20;27.20
45343;DHT22;31077;50.872;4.352;2023-02-28T01:29:09;24.10;27.10
45343;DHT22;31077;50.872;4.352;2023-02-28T01:31:35;24.30;27.20
45343;DHT22;31077;50.872;4.352;2023-02-28T01:34:02;24.20;27.20
45343;DHT22;31077;50.872;4.352;2023-02-28T01:36:27;24.20;27.20
45343;DHT22;31077;50.872;4.352;2023-02-28T01:38:54;24.20;27.20
45343;DHT22;31077;50.872;4.352;2023-02-28T01:41:25;24.20;27.10
45343;DHT22;31077;50.872;4.352;2023-02-28T01:43:53;24.30;27.30
45343;DHT22;31077;50.872;4.352;2023-02-28T01:46:19;24.10;27.20
45343;DHT22;31077;50.872;4.352;2023-02-28T01:48:48;24.10;27.10
45343;DHT22;31077;50.872;4.352;2023-02-28T01:51:48;24.20;27.20
45343;DHT22;31077;50.872;4.352;2023-02-28T01:54:29;24.10;27.20
45343;DHT22;31077;50.872;4.352;2023-02-28T01:57:03;24.10;27.20
45343;DHT22;31077;50.872;4.352;2023-02-28T01:59:34;24.10;27.30
45343;DHT22;31077;50.872;4.352;2023-02-28T02:02:02;23.50;27.00
45343;DHT22;31077;50.872;4.352;2023-02-28T02:04:54;24.10;27.20
45343;DHT22;31077;50.872;4.352;2023-02-28T02:07:21;24.20;27.20
45343;DHT22;31077;50.872;4.352;2023-02-28T02:09:47;24.20;27.20
45343;DHT22;31077;50.872;4.352;2023-02-28T02:12:32;24.30;27.30
45343;DHT22;31077;50.872;4.352;2023-02-28T02:16:11;24.10;27.20
45343;DHT22;31077;50.872;4.352;2023-02-28T02:18:19;24.30;27.30
45343;DHT22;31077;50.872;4.352;2023-02-28T02:24:22;24.20;27.20
45343;DHT22;31077;50.872;4.352;2023-02-28T02:35:04;24.00;27.10
45343;DHT22;31077;50.872;4.352;2023-02-28T02:40:32;24.10;27.30
45343;DHT22;31077;50.872;4.352;2023-02-28T02:43:01;24.00;27.20
45343;DHT22;31077;50.872;4.352;2023-02-28T02:45:40;23.20;26.90
45343;DHT22;31077;50.872;4.352;2023-02-28T02:48:11;24.00;27.30
45343;DHT22;31077;50.872;4.352;2023-02-28T02:50:44;24.00;27.30
45343;DHT22;31077;50.872;4.352;2023-02-28T02:53:12;24.00;27.20
45343;DHT22;31077;50.872;4.352;2023-02-28T02:55:41;24.10;27.30
45343;DHT22;31077;50.872;4.352;2023-02-28T02:58:13;24.10;27.30
45343;DHT22;31077;50.872;4.352;2023-02-28T03:00:43;24.10;27.20
45343;DHT22;31077;50.872;4.352;2023-02-28T03:03:12;24.10;27.20
45343;DHT22;31077;50.872;4.352;2023-02-28T03:05:49;24.10;27.20
45343;DHT22;31077;50.872;4.352;2023-02-28T03:08:15;24.10;27.20
45343;DHT22;31077;50.872;4.352;2023-02-28T03:10:44;24.10;27.20
45343;DHT22;31077;50.872;4.352;2023-02-28T03:24:19;24.20;27.20
45343;DHT22;31077;50.872;4.352;2023-02-28T03:26:57;25.10;27.50
45343;DHT22;31077;50.872;4.352;2023-02-28T03:29:35;24.10;27.10
45343;DHT22;31077;50.872;4.352;2023-02-28T03:32:25;24.20;27.10
45343;DHT22;31077;50.872;4.352;2023-02-28T03:35:08;22.80;26.60
45343;DHT22;31077;50.872;4.352;2023-02-28T03:37:37;24.10;27.10
45343;DHT22;31077;50.872;4.352;2023-02-28T03:40:08;24.20;27.20
45343;DHT22;31077;50.872;4.352;2023-02-28T03:42:36;24.20;27.10
45343;DHT22;31077;50.872;4.352;2023-02-28T03:45:23;24.10;27.10
45343;DHT22;31077;50.872;4.352;2023-02-28T03:50:40;24.10;27.10
45343;DHT22;31077;50.872;4.352;2023-02-28T03:53:11;24.10;27.00
45343;DHT22;31077;50.872;4.352;2023-02-28T03:56:09;24.10;27.00
45343;DHT22;31077;50.872;4.352;2023-02-28T04:01:17;24.20;27.20
45343;DHT22;31077;50.872;4.352;2023-02-28T04:03:45;24.10;27.10
45343;DHT22;31077;50.872;4.352;2023-02-28T04:06:20;24.10;27.10
45343;DHT22;31077;50.872;4.352;2023-02-28T04:08:46;24.20;27.10
45343;DHT22;31077;50.872;4.352;2023-02-28T04:11:22;24.10;27.10
45343;DHT22;31077;50.872;4.352;2023-02-28T04:13:48;24.10;27.00
45343;DHT22;31077;50.872;4.352;2023-02-28T04:16:14;24.10;27.00
45343;DHT22;31077;50.872;4.352;2023-02-28T04:18:40;24.10;27.00
45343;DHT22;31077;50.872;4.352;2023-02-28T04:21:08;24.20;27.00
45343;DHT22;31077;50.872;4.352;2023-02-28T04:23:34;24.20;27.00
45343;DHT22;31077;50.872;4.352;2023-02-28T04:26:00;24.20;27.00
45343;DHT22;31077;50.872;4.352;2023-02-28T04:28:26;24.00;26.90
45343;DHT22;31077;50.872;4.352;2023-02-28T04:31:03;24.20;27.10
45343;DHT22;31077;50.872;4.352;2023-02-28T04:33:30;24.20;27.10
45343;DHT22;31077;50.872;4.352;2023-02-28T04:36:05;24.10;27.00
45343;DHT22;31077;50.872;4.352;2023-02-28T04:38:34;24.10;27.20
45343;DHT22;31077;50.872;4.352;2023-02-28T04:41:00;24.10;27.00
45343;DHT22;31077;50.872;4.352;2023-02-28T04:43:27;24.10;27.00
45343;DHT22;31077;50.872;4.352;2023-02-28T04:45:54;24.20;27.00
45343;DHT22;31077;50.872;4.352;2023-02-28T04:48:24;24.10;27.40
45343;DHT22;31077;50.872;4.352;2023-02-28T04:50:51;24.20;27.00
45343;DHT22;31077;50.872;4.352;2023-02-28T04:53:17;24.20;27.00
45343;DHT22;31077;50.872;4.352;2023-02-28T04:55:43;24.20;27.00
45343;DHT22;31077;50.872;4.352;2023-02-28T04:58:09;24.20;27.10
45343;DHT22;31077;50.872;4.352;2023-02-28T05:00:35;24.20;27.00
45343;DHT22;31077;50.872;4.352;2023-02-28T05:03:01;24.20;27.10
45343;DHT22;31077;50.872;4.352;2023-02-28T05:05:26;24.20;27.00
45343;DHT22;31077;50.872;4.352;2023-02-28T05:07:53;24.20;27.10
45343;DHT22;31077;50.872;4.352;2023-02-28T05:10:21;22.40;26.30
45343;DHT22;31077;50.872;4.352;2023-02-28T05:12:47;23.30;26.70
45343;DHT22;31077;50.872;4.352;2023-02-28T05:15:15;24.20;27.00
45343;DHT22;31077;50.872;4.352;2023-02-28T05:17:41;24.20;27.00
45343;DHT22;31077;50.872;4.352;2023-02-28T05:20:08;24.20;27.00
45343;DHT22;31077;50.872;4.352;2023-02-28T05:22:37;24.40;27.10
45343;DHT22;31077;50.872;4.352;2023-02-28T05:25:03;24.10;27.00
45343;DHT22;31077;50.872;4.352;2023-02-28T05:27:32;24.20;27.00
45343;DHT22;31077;50.872;4.352;2023-02-28T05:29:59;24.20;27.10
45343;DHT22;31077;50.872;4.352;2023-02-28T05:32:25;24.20;27.00
45343;DHT22;31077;50.872;4.352;2023-02-28T05:34:50;24.10;27.00
45343;DHT22;31077;50.872;4.352;2023-02-28T05:37:16;24.20;27.10
45343;DHT22;31077;50.872;4.352;2023-02-28T05:39:42;24.20;27.00
45343;DHT22;31077;50.872;4.352;2023-02-28T05:42:08;23.70;26.90
45343;DHT22;31077;50.872;4.352;2023-02-28T05:44:35;24.20;27.10
45343;DHT22;31077;50.872;4.352;2023-02-28T05:47:01;23.00;26.60
45343;DHT22;31077;50.872;4.352;2023-02-28T05:49:27;24.10;27.00
45343;DHT22;31077;50.872;4.352;2023-02-28T05:51:53;24.20;27.10
45343;DHT22;31077;50.872;4.352;2023-02-28T05:54:19;24.20;27.10
45343;DHT22;31077;50.872;4.352;2023-02-28T05:56:44;24.20;27.10
45343;DHT22;31077;50.872;4.352;2023-02-28T05:59:12;24.10;27.50
45343;DHT22;31077;50.872;4.352;2023-02-28T06:01:42;24.10;27.10
45343;DHT22;31077;50.872;4.352;2023-02-28T06:04:14;24.10;27.10
45343;DHT22;31077;50.872;4.352;2023-02-28T06:06:44;24.10;27.10
45343;DHT22;31077;50.872;4.352;2023-02-28T06:09:10;24.10;27.10
45343;DHT22;31077;50.872;4.352;2023-02-28T06:11:37;22.30;26.30
45343;DHT22;31077;50.872;4.352;2023-02-28T06:14:03;24.10;27.10
45343;DHT22;31077;50.872;4.352;2023-02-28T06:16:31;24.20;27.00
45343;DHT22;31077;50.872;4.352;2023-02-28T06:18:58;24.20;27.10
45343;DHT22;31077;50.872;4.352;2023-02-28T06:21:24;24.10;27.00
45343;DHT22;31077;50.872;4.352;2023-02-28T06:23:50;24.10;27.10
45343;DHT22;31077;50.872;4.352;2023-02-28T06:26:16;24.20;27.10
45343;DHT22;31077;50.872;4.352;2023-02-28T06:28:42;24.20;27.00
45343;DHT22;31077;50.872;4.352;2023-02-28T06:31:14;24.10;27.00
45343;DHT22;31077;50.872;4.352;2023-02-28T06:33:41;24.20;27.10
45343;DHT22;31077;50.872;4.352;2023-02-28T06:36:08;23.60;26.80
45343;DHT22;31077;50.872;4.352;2023-02-28T06:38:35;24.20;27.10
45343;DHT22;31077;50.872;4.352;2023-02-28T06:41:01;24.90;27.30
45343;DHT22;31077;50.872;4.352;2023-02-28T06:43:33;24.10;27.00
45343;DHT22;31077;50.872;4.352;2023-02-28T06:46:00;24.10;27.00
45343;DHT22;31077;50.872;4.352;2023-02-28T06:48:27;24.10;27.00
45343;DHT22;31077;50.872;4.352;2023-02-28T06:51:11;24.10;27.10
45343;DHT22;31077;50.872;4.352;2023-02-28T06:53:39;24.10;27.00
45343;DHT22;31077;50.872;4.352;2023-02-28T06:56:07;24.20;27.10
45343;DHT22;31077;50.872;4.352;2023-02-28T06:58:34;24.10;27.10
45343;DHT22;31077;50.872;4.352;2023-02-28T07:01:00;24.10;27.10
45343;DHT22;31077;50.872;4.352;2023-02-28T07:03:26;24.10;27.10
45343;DHT22;31077;50.872;4.352;2023-02-28T07:05:51;24.10;27.10
45343;DHT22;31077;50.872;4.352;2023-02-28T07:08:17;24.10;27.10
45343;DHT22;31077;50.872;4.352;2023-02-28T07:10:43;25.70;27.80
45343;DHT22;31077;50.872;4.352;2023-02-28T07:13:09;24.10;27.10
45343;DHT22;31077;50.872;4.352;2023-02-28T07:15:37;24.10;27.10
45343;DHT22;31077;50.872;4.352;2023-02-28T07:18:03;23.80;27.00
45343;DHT22;31077;50.872;4.352;2023-02-28T07:20:30;23.60;26.90
45343;DHT22;31077;50.872;4.352;2023-02-28T07:22:55;23.30;26.80
45343;DHT22;31077;50.872;4.352;2023-02-28T07:25:23;24.30;27.40
45343;DHT22;31077;50.872;4.352;2023-02-28T07:27:49;24.10;27.40
45343;DHT22;31077;50.872;4.352;2023-02-28T07:30:14;24.10;27.50
45343;DHT22;31077;50.872;4.352;2023-02-28T07:32:40;26.20;28.50
45343;DHT22;31077;50.872;4.352;2023-02-28T07:35:06;22.80;26.90
45343;DHT22;31077;50.872;4.352;2023-02-28T07:37:32;24.10;27.40
45343;DHT22;31077;50.872;4.352;2023-02-28T07:40:04;24.20;27.50
45343;DHT22;31077;50.872;4.352;2023-02-28T07:42:32;24.10;27.40
45343;DHT22;31077;50.872;4.352;2023-02-28T07:44:58;24.10;27.40
45343;DHT22;31077;50.872;4.352;2023-02-28T07:47:24;24.20;27.50
45343;DHT22;31077;50.872;4.352;2023-02-28T07:49:50;24.10;27.40
45343;DHT22;31077;50.872;4.352;2023-02-28T07:52:16;24.10;27.40
45343;DHT22;31077;50.872;4.352;2023-02-28T07:54:42;24.10;27.40
45343;DHT22;31077;50.872;4.352;2023-02-28T07:57:08;22.60;26.80
45343;DHT22;31077;50.872;4.352;2023-02-28T07:59:33;24.20;27.40
45343;DHT22;31077;50.872;4.352;2023-02-28T08:01:59;24.10;27.30
45343;DHT22;31077;50.872;4.352;2023-02-28T08:04:25;24.30;27.50
45343;DHT22;31077;50.872;4.352;2023-02-28T08:06:51;24.10;27.30
45343;DHT22;31077;50.872;4.352;2023-02-28T08:09:21;24.20;27.30
45343;DHT22;31077;50.872;4.352;2023-02-28T08:11:47;24.20;27.40
45343;DHT22;31077;50.872;4.352;2023-02-28T08:14:13;24.10;27.30
45343;DHT22;31077;50.872;4.352;2023-02-28T08:16:39;23.80;27.10
45343;DHT22;31077;50.872;4.352;2023-02-28T08:19:05;24.20;27.30
45343;DHT22;31077;50.872;4.352;2023-02-28T08:21:30;24.20;27.20
45343;DHT22;31077;50.872;4.352;2023-02-28T08:23:56;24.30;27.30
45343;DHT22;31077;50.872;4.352;2023-02-28T08:26:22;24.20;27.20
45343;DHT22;31077;50.872;4.352;2023-02-28T08:28:48;24.20;27.70
45343;DHT22;31077;50.872;4.352;2023-02-28T08:31:16;24.20;27.20
45343;DHT22;31077;50.872;4.352;2023-02-28T08:33:42;24.10;27.20
45343;DHT22;31077;50.872;4.352;2023-02-28T08:36:10;24.10;27.20
45343;DHT22;31077;50.872;4.352;2023-02-28T08:38:37;24.20;27.30
45343;DHT22;31077;50.872;4.352;2023-02-28T08:41:09;24.20;27.30
45343;DHT22;31077;50.872;4.352;2023-02-28T08:43:35;24.10;27.30
45343;DHT22;31077;50.872;4.352;2023-02-28T08:46:01;24.10;27.30
45343;DHT22;31077;50.872;4.352;2023-02-28T08:48:30;24.10;27.30
45343;DHT22;31077;50.872;4.352;2023-02-28T08:51:02;24.10;27.40
45343;DHT22;31077;50.872;4.352;2023-02-28T08:53:28;24.00;27.60
45343;DHT22;31077;50.872;4.352;2023-02-28T08:55:59;24.10;27.20
45343;DHT22;31077;50.872;4.352;2023-02-28T08:58:25;24.20;27.30
45343;DHT22;31077;50.872;4.352;2023-02-28T09:00:52;24.20;27.30
45343;DHT22;31077;50.872;4.352;2023-02-28T09:03:19;24.00;27.20
45343;DHT22;31077;50.872;4.352;2023-02-28T09:05:56;24.00;27.20
45343;DHT22;31077;50.872;4.352;2023-02-28T09:08:23;24.00;27.00
45343;DHT22;31077;50.872;4.352;2023-02-28T09:10:49;24.00;27.10
45343;DHT22;31077;50.872;4.352;2023-02-28T09:13:14;23.50;26.80
45343;DHT22;31077;50.872;4.352;2023-02-28T09:15:40;24.00;27.00
45343;DHT22;31077;50.872;4.352;2023-02-28T09:18:06;24.10;27.00
45343;DHT22;31077;50.872;4.352;2023-02-28T09:20:32;23.90;26.80
45343;DHT22;31077;50.872;4.352;2023-02-28T09:22:58;23.90;26.90
45343;DHT22;31077;50.872;4.352;2023-02-28T09:25:24;23.90;26.90
45343;DHT22;31077;50.872;4.352;2023-02-28T09:27:49;24.00;26.90
45343;DHT22;31077;50.872;4.352;2023-02-28T09:30:16;24.00;26.90
45343;DHT22;31077;50.872;4.352;2023-02-28T09:32:41;23.90;27.60
45343;DHT22;31077;50.872;4.352;2023-02-28T09:35:07;23.90;26.90
45343;DHT22;31077;50.872;4.352;2023-02-28T09:37:39;23.90;26.70
45343;DHT22;31077;50.872;4.352;2023-02-28T09:40:05;22.60;26.00
45343;DHT22;31077;50.872;4.352;2023-02-28T09:42:32;23.90;26.40
45343;DHT22;31077;50.872;4.352;2023-02-28T09:45:02;24.00;26.50
45343;DHT22;31077;50.872;4.352;2023-02-28T09:47:36;24.00;26.50
45343;DHT22;31077;50.872;4.352;2023-02-28T09:52:54;24.00;26.40
45343;DHT22;31077;50.872;4.352;2023-02-28T09:55:32;24.00;26.30
45343;DHT22;31077;50.872;4.352;2023-02-28T09:58:00;23.90;26.10
45343;DHT22;31077;50.872;4.352;2023-02-28T10:00:40;23.90;26.10
45343;DHT22;31077;50.872;4.352;2023-02-28T10:03:25;24.00;26.10
45343;DHT22;31077;50.872;4.352;2023-02-28T10:08:31;23.90;26.00
45343;DHT22;31077;50.872;4.352;2023-02-28T10:11:01;23.90;26.00
45343;DHT22;31077;50.872;4.352;2023-02-28T10:16:27;23.90;25.90
45343;DHT22;31077;50.872;4.352;2023-02-28T10:18:59;23.90;25.80
45343;DHT22;31077;50.872;4.352;2023-02-28T10:21:41;23.90;25.60
45343;DHT22;31077;50.872;4.352;2023-02-28T10:26:47;23.90;25.60
45343;DHT22;31077;50.872;4.352;2023-02-28T10:29:13;23.90;25.50
45343;DHT22;31077;50.872;4.352;2023-02-28T10:31:40;23.90;25.50
45343;DHT22;31077;50.872;4.352;2023-02-28T10:34:07;23.90;25.90
45343;DHT22;31077;50.872;4.352;2023-02-28T10:36:33;23.90;25.30
45343;DHT22;31077;50.872;4.352;2023-02-28T10:39:41;23.90;25.30
45343;DHT22;31077;50.872;4.352;2023-02-28T10:42:20;23.90;25.30
45343;DHT22;31077;50.872;4.352;2023-02-28T10:44:47;24.00;25.20
45343;DHT22;31077;50.872;4.352;2023-02-28T10:47:17;23.90;25.20
45343;DHT22;31077;50.872;4.352;2023-02-28T10:49:49;23.90;25.10
45343;DHT22;31077;50.872;4.352;2023-02-28T10:52:41;23.90;25.10
45343;DHT22;31077;50.872;4.352;2023-02-28T10:55:36;23.90;24.90
45343;DHT22;31077;50.872;4.352;2023-02-28T10:58:02;23.90;25.10
45343;DHT22;31077;50.872;4.352;2023-02-28T11:00:34;24.00;25.10
45343;DHT22;31077;50.872;4.352;2023-02-28T11:03:00;24.00;25.10
45343;DHT22;31077;50.872;4.352;2023-02-28T11:05:32;22.00;24.20
45343;DHT22;31077;50.872;4.352;2023-02-28T11:08:16;23.90;24.70
45343;DHT22;31077;50.872;4.352;2023-02-28T11:10:56;23.00;24.40
45343;DHT22;31077;50.872;4.352;2023-02-28T11:13:29;23.90;24.70
45343;DHT22;31077;50.872;4.352;2023-02-28T11:16:00;23.90;24.70
45343;DHT22;31077;50.872;4.352;2023-02-28T11:21:08;24.00;24.60
45343;DHT22;31077;50.872;4.352;2023-02-28T11:23:37;22.60;24.00
45343;DHT22;31077;50.872;4.352;2023-02-28T11:26:05;23.90;24.50
45343;DHT22;31077;50.872;4.352;2023-02-28T11:28:37;24.00;24.60
45343;DHT22;31077;50.872;4.352;2023-02-28T11:31:16;24.00;24.50
45343;DHT22;31077;50.872;4.352;2023-02-28T11:33:52;24.00;24.70
45343;DHT22;31077;50.872;4.352;2023-02-28T11:36:24;24.00;24.60
45343;DHT22;31077;50.872;4.352;2023-02-28T11:38:52;24.00;24.70
45343;DHT22;31077;50.872;4.352;2023-02-28T11:46:43;24.00;24.80
45343;DHT22;31077;50.872;4.352;2023-02-28T11:49:43;23.50;24.40
45343;DHT22;31077;50.872;4.352;2023-02-28T11:55:13;24.10;24.60
45343;DHT22;31077;50.872;4.352;2023-02-28T12:05:52;23.40;24.30
45343;DHT22;31077;50.872;4.352;2023-02-28T12:22:49;24.40;24.90
45343;DHT22;31077;50.872;4.352;2023-02-28T12:25:43;24.20;24.80
45343;DHT22;31077;50.872;4.352;2023-02-28T12:28:12;22.90;24.20
45343;DHT22;31077;50.872;4.352;2023-02-28T12:30:49;24.20;24.70
45343;DHT22;31077;50.872;4.352;2023-02-28T12:33:18;24.30;24.80
45343;DHT22;31077;50.872;4.352;2023-02-28T12:35:58;24.30;24.70
45343;DHT22;31077;50.872;4.352;2023-02-28T12:38:29;24.30;24.70
45343;DHT22;31077;50.872;4.352;2023-02-28T12:41:24;24.40;24.50
45343;DHT22;31077;50.872;4.352;2023-02-28T12:44:15;24.50;24.60
45343;DHT22;31077;50.872;4.352;2023-02-28T12:46:48;24.40;24.60
45343;DHT22;31077;50.872;4.352;2023-02-28T12:49:24;24.50;24.60
45343;DHT22;31077;50.872;4.352;2023-02-28T12:51:53;24.60;24.70
45343;DHT22;31077;50.872;4.352;2023-02-28T12:57:11;24.50;24.50
45343;DHT22;31077;50.872;4.352;2023-02-28T13:00:14;24.50;24.40
45343;DHT22;31077;50.872;4.352;2023-02-28T13:08:48;24.50;24.30
45343;DHT22;31077;50.872;4.352;2023-02-28T13:14:03;24.80;24.30
45343;DHT22;31077;50.872;4.352;2023-02-28T13:19:28;24.70;24.20
45343;DHT22;31077;50.872;4.352;2023-02-28T13:21:57;24.70;24.20
45343;DHT22;31077;50.872;4.352;2023-02-28T13:24:59;24.70;24.20
45343;DHT22;31077;50.872;4.352;2023-02-28T13:27:39;24.80;24.20
45343;DHT22;31077;50.872;4.352;2023-02-28T13:35:50;23.50;23.60
45343;DHT22;31077;50.872;4.352;2023-02-28T13:38:33;24.80;24.10
45343;DHT22;31077;50.872;4.352;2023-02-28T13:54:32;24.90;24.00
45343;DHT22;31077;50.872;4.352;2023-02-28T13:57:12;25.10;24.20
45343;DHT22;31077;50.872;4.352;2023-02-28T13:59:53;25.40;24.40
45343;DHT22;31077;50.872;4.352;2023-02-28T14:05:19;23.30;23.30
45343;DHT22;31077;50.872;4.352;2023-02-28T14:07:53;25.00;24.10
45343;DHT22;31077;50.872;4.352;2023-02-28T14:10:34;25.10;24.10
45343;DHT22;31077;50.872;4.352;2023-02-28T14:13:53;25.10;24.20
45343;DHT22;31077;50.872;4.352;2023-02-28T14:16:05;25.00;24.00
45343;DHT22;31077;50.872;4.352;2023-02-28T14:18:37;25.00;24.10
45343;DHT22;31077;50.872;4.352;2023-02-28T14:21:11;25.00;24.10
45343;DHT22;31077;50.872;4.352;2023-02-28T14:29:30;23.80;23.60
45343;DHT22;31077;50.872;4.352;2023-02-28T14:32:23;25.20;24.10
45343;DHT22;31077;50.872;4.352;2023-02-28T14:37:47;25.10;24.10
45343;DHT22;31077;50.872;4.352;2023-02-28T14:40:29;25.30;24.20
45343;DHT22;31077;50.872;4.352;2023-02-28T14:43:01;25.30;24.10
45343;DHT22;31077;50.872;4.352;2023-02-28T14:45:29;25.20;24.10
45343;DHT22;31077;50.872;4.352;2023-02-28T14:47:57;25.40;24.20
45343;DHT22;31077;50.872;4.352;2023-02-28T14:50:36;25.20;24.00
45343;DHT22;31077;50.872;4.352;2023-02-28T14:53:03;25.20;24.00
45343;DHT22;31077;50.872;4.352;2023-02-28T14:55:31;25.20;24.10
45343;DHT22;31077;50.872;4.352;2023-02-28T14:57:59;25.30;24.00
45343;DHT22;31077;50.872;4.352;2023-02-28T15:00:30;25.30;24.00
45343;DHT22;31077;50.872;4.352;2023-02-28T15:02:58;25.40;24.10
45343;DHT22;31077;50.872;4.352;2023-02-28T15:05:30;25.40;24.10
45343;DHT22;31077;50.872;4.352;2023-02-28T15:08:15;25.30;24.00
45343;DHT22;31077;50.872;4.352;2023-02-28T15:10:44;25.50;24.20
45343;DHT22;31077;50.872;4.352;2023-02-28T15:13:13;25.30;24.10
45343;DHT22;31077;50.872;4.352;2023-02-28T15:20:47;25.50;24.10
45343;DHT22;31077;50.872;4.352;2023-02-28T15:23:13;25.40;24.00
45343;DHT22;31077;50.872;4.352;2023-02-28T15:25:40;25.60;24.10
45343;DHT22;31077;50.872;4.352;2023-02-28T15:28:16;25.40;24.00
45343;DHT22;31077;50.872;4.352;2023-02-28T15:30:52;25.40;24.00
45343;DHT22;31077;50.872;4.352;2023-02-28T15:33:24;24.40;23.60
45343;DHT22;31077;50.872;4.352;2023-02-28T15:35:51;25.50;24.10
45343;DHT22;31077;50.872;4.352;2023-02-28T15:38:28;25.40;24.00
45343;DHT22;31077;50.872;4.352;2023-02-28T15:40:56;25.50;24.10
45343;DHT22;31077;50.872;4.352;2023-02-28T15:43:33;25.50;24.10
45343;DHT22;31077;50.872;4.352;2023-02-28T15:46:11;25.40;24.10
45343;DHT22;31077;50.872;4.352;2023-02-28T15:48:53;25.50;24.10
45343;DHT22;31077;50.872;4.352;2023-02-28T15:51:34;25.40;24.00
45343;DHT22;31077;50.872;4.352;2023-02-28T15:54:05;25.40;24.10
45343;DHT22;31077;50.872;4.352;2023-02-28T15:56:38;25.40;24.00
45343;DHT22;31077;50.872;4.352;2023-02-28T15:59:20;25.50;24.10
45343;DHT22;31077;50.872;4.352;2023-02-28T16:01:46;25.60;24.10
45343;DHT22;31077;50.872;4.352;2023-02-28T16:04:21;25.60;24.10
45343;DHT22;31077;50.872;4.352;2023-02-28T16:09:23;25.50;24.10
45343;DHT22;31077;50.872;4.352;2023-02-28T16:11:52;25.60;24.10
45343;DHT22;31077;50.872;4.352;2023-02-28T16:14:21;25.50;24.10
45343;DHT22;31077;50.872;4.352;2023-02-28T16:16:52;25.60;24.20
45343;DHT22;31077;50.872;4.352;2023-02-28T16:19:18;25.70;24.10
45343;DHT22;31077;50.872;4.352;2023-02-28T16:21:45;25.60;24.10
45343;DHT22;31077;50.872;4.352;2023-02-28T16:24:11;25.60;24.10
45343;DHT22;31077;50.872;4.352;2023-02-28T16:26:38;23.70;23.20
45343;DHT22;31077;50.872;4.352;2023-02-28T16:29:05;25.40;24.00
45343;DHT22;31077;50.872;4.352;2023-02-28T16:31:35;25.60;24.00
45343;DHT22;31077;50.872;4.352;2023-02-28T16:34:02;25.60;24.00
45343;DHT22;31077;50.872;4.352;2023-02-28T16:36:29;25.80;24.20
45343;DHT22;31077;50.872;4.352;2023-02-28T16:38:57;25.30;23.90
45343;DHT22;31077;50.872;4.352;2023-02-28T16:41:27;25.80;24.20
45343;DHT22;31077;50.872;4.352;2023-02-28T16:43:55;25.70;24.50
45343;DHT22;31077;50.872;4.352;2023-02-28T16:46:33;25.70;24.10
45343;DHT22;31077;50.872;4.352;2023-02-28T16:48:59;25.70;24.00
45343;DHT22;31077;50.872;4.352;2023-02-28T16:51:25;25.70;24.00
45343;DHT22;31077;50.872;4.352;2023-02-28T16:53:51;25.70;24.10
45343;DHT22;31077;50.872;4.352;2023-02-28T16:56:18;25.70;24.10
45343;DHT22;31077;50.872;4.352;2023-02-28T16:58:45;25.60;24.10
45343;DHT22;31077;50.872;4.352;2023-02-28T17:01:11;25.60;24.10
45343;DHT22;31077;50.872;4.352;2023-02-28T17:03:37;25.20;23.90
45343;DHT22;31077;50.872;4.352;2023-02-28T17:06:03;24.80;23.70
45343;DHT22;31077;50.872;4.352;2023-02-28T17:08:31;25.50;24.20
45343;DHT22;31077;50.872;4.352;2023-02-28T17:10:58;25.40;24.20
45343;DHT22;31077;50.872;4.352;2023-02-28T17:13:24;25.50;24.30
45343;DHT22;31077;50.872;4.352;2023-02-28T17:15:50;25.40;24.30
45343;DHT22;31077;50.872;4.352;2023-02-28T17:18:18;25.30;24.20
45343;DHT22;31077;50.872;4.352;2023-02-28T17:20:45;25.30;24.40
45343;DHT22;31077;50.872;4.352;2023-02-28T17:23:11;25.10;24.40
45343;DHT22;31077;50.872;4.352;2023-02-28T17:25:37;25.10;24.40
45343;DHT22;31077;50.872;4.352;2023-02-28T17:28:03;25.00;24.50
45343;DHT22;31077;50.872;4.352;2023-02-28T17:30:30;25.20;24.50
45343;DHT22;31077;50.872;4.352;2023-02-28T17:32:58;25.00;24.40
45343;DHT22;31077;50.872;4.352;2023-02-28T17:35:24;24.90;24.30
45343;DHT22;31077;50.872;4.352;2023-02-28T17:37:52;24.90;24.60
45343;DHT22;31077;50.872;4.352;2023-02-28T17:40:21;24.80;24.30
45343;DHT22;31077;50.872;4.352;2023-02-28T17:42:48;24.90;24.30
45343;DHT22;31077;50.872;4.352;2023-02-28T17:45:14;24.80;24.20
45343;DHT22;31077;50.872;4.352;2023-02-28T17:47:42;23.40;23.80
45343;DHT22;31077;50.872;4.352;2023-02-28T17:50:17;24.80;24.30
45343;DHT22;31077;50.872;4.352;2023-02-28T17:52:43;24.70;24.20
45343;DHT22;31077;50.872;4.352;2023-02-28T17:55:09;24.80;24.30
45343;DHT22;31077;50.872;4.352;2023-02-28T17:57:35;24.70;24.50